aviador You're here:

CYPH Decoded Metar

INUKJUAK in QC, CANADA
Report Time2017-09-25 20:00:00
UTC Time2017-09-25 20:26:59
Flight Rules vfr VFR
Wind010° at 08 kt
W.Decomp.*RWY 07: 6.0 kt HW 5.2 kt LCW
W.Rank010° ranks 26
Current wind is below 010° avg. (11.5)
Visibility9999 m
Phenomena:N/A
Clouds:Scattered 036 Hf
Expected CloudBase > 2,800 ft AGL from Temp-Dew spread
CeilingNone
Temp06°C (ISA -9)
Dew Point-1°C (61% RH)
AAT1.0°C
QNH1017 hPa
Density Alt-1,132 ft
Elevation10 ft
Report Wrong Elevation
Raw Report
CYPH 252000Z AUTO 01008KT 9SM SCT036 06/M01 A3003 RMK SLP172=

Extra information for CYPH:More info

Metar Taf Metar & Taf Last 4 Metars F.Rules Stats Wind Profile Meteogram Temp Stats Airport Information Weather charts Add Link Nearby VenuesMetar ALERT Operation Metar Decoded Social comments